Portada
METAR-TAF:

METAR-TAF

Aeropuertos :

Aeropuerto Internacional de Cefalonia

Cefalonia, Grecia

latitud: 38-07N, longitud: 020-30E, altitud: 19 m

Observación

El informe se hizo hace 45 minutos, a las 00:50 UTC
Viento 5 kt del noroeste
Temperatura 26°C
Humedad 89%
Presión 1009 hPa
Visibilidad 10 km o más
Escasas nubes a una altura de 1500 ft

METAR: LGKF 230050Z 32005KT 9999 FEW015 26/24 Q1009

Hora: 04:35 (01:35 UTC)

Pronóstico

El informe se hizo hace 2 horas y 35 minutos, a las 23:00 UTC
Pronóstico válido del 23 a las 00 UTC al 23 a las 09 UTC
Viento 7 kt del noroeste
Visibilidad 10 km o más
Escasas nubes a una altura de 1200 ft

TAF: LGKF 222300Z 2300/2309 32007KT 9999 FEW012

Observaciones y pronósticos meteorológicos de más de 4000 aeropuertos (mensajes METAR y TAF).

Los puntos amarillos y rojos representan las estaciones disponibles.

Ponga el ratón en el punto deseado para ver el nombre de la estación.

Haga clic para ver las observaciones y los pronósticos meteorológicos.

Para cambiar el mapa : haga clic en los botones verdes con una cruz de color negro para hacer un zoom, en el botón verde con un guión para alejar o en las flechas verdes para mapas adyacentes.


METAR-TAF: